Time;durP1;ratioP1;P1;durP2;ratioP2;P2;SDS_P1;SDS_P2;PMS_P1;PMS_P2;Temp;Humidity;BMP_temperature;BMP_pressure;BME280_temperature;BME280_humidity;BME280_pressure;Samples;Min_cycle;Max_cycle;Signal;HPM_P1;HPM_P2
2022/04/11 00:01:03;;;;;;;4.33;2.90;;;27.30;99.90;;;;;;5074991;28;20263;-68
2022/04/11 00:03:31;;;;;;;8.33;2.23;;;27.20;99.90;;;;;;5055476;28;20579;-68
2022/04/11 00:05:59;;;;;;;3.63;2.20;;;27.10;99.90;;;;;;5063568;28;20199;-68
2022/04/11 00:08:26;;;;;;;6.87;2.70;;;27.10;99.90;;;;;;5074593;28;20314;-68
2022/04/11 00:10:53;;;;;;;4.90;2.13;;;27.30;99.90;;;;;;5072343;28;20175;-68
2022/04/11 00:13:20;;;;;;;3.53;1.97;;;27.20;99.90;;;;;;5059672;28;20622;-68
2022/04/11 00:15:48;;;;;;;5.00;2.28;;;27.70;99.90;;;;;;5061816;28;20215;-68
2022/04/11 00:18:15;;;;;;;6.35;2.35;;;27.70;99.90;;;;;;5074521;28;20274;-67
2022/04/11 00:20:42;;;;;;;6.33;2.93;;;27.90;99.90;;;;;;5074693;28;20176;-67
2022/04/11 00:23:10;;;;;;;7.80;3.45;;;28.50;99.90;;;;;;5074647;28;20225;-69
2022/04/11 00:25:37;;;;;;;9.18;4.38;;;28.50;99.90;;;;;;5065977;28;20204;-68
2022/04/11 00:28:05;;;;;;;8.10;5.33;;;28.70;99.90;;;;;;5054025;28;20177;-66
2022/04/11 00:30:32;;;;;;;5.47;3.03;;;28.10;99.90;;;;;;5062542;28;20562;-67
2022/04/11 00:33:00;;;;;;;5.03;2.30;;;28.20;99.90;;;;;;5074074;28;20178;-68
2022/04/11 00:35:27;;;;;;;4.18;1.98;;;28.20;99.90;;;;;;5073286;28;20263;-67
2022/04/11 00:37:54;;;;;;;5.50;2.30;;;28.40;99.90;;;;;;5072413;28;20583;-68
2022/04/11 00:40:22;;;;;;;6.90;2.28;;;28.70;99.90;;;;;;5063870;28;20215;-68
2022/04/11 00:42:50;;;;;;;7.30;3.53;;;28.90;99.90;;;;;;5073878;28;20186;-67
2022/04/11 00:45:17;;;;;;;6.53;3.10;;;29.40;99.90;;;;;;5071674;28;20725;-68
2022/04/11 00:47:45;;;;;;;2.85;2.00;;;29.20;99.90;;;;;;5057350;28;20262;-67
2022/04/11 00:50:13;;;;;;;4.22;1.73;;;29.70;99.90;;;;;;5073385;28;20234;-68
2022/04/11 00:52:55;;;;;;;8.43;2.38;;;29.60;99.90;;;;;;5066270;28;20642;-68
2022/04/11 00:55:25;;;;;;;6.75;2.20;;;29.80;99.90;;;;;;5057981;28;20598;-68
2022/04/11 00:57:52;;;;;;;3.15;1.50;;;29.50;99.90;;;;;;5072599;28;20237;-68
2022/04/11 01:00:20;;;;;;;3.53;1.70;;;29.40;99.90;;;;;;5053805;28;20204;-68
2022/04/11 01:02:47;;;;;;;4.07;1.17;;;29.50;99.90;;;;;;5053796;28;20529;-69
2022/04/11 01:05:15;;;;;;;3.25;1.58;;;29.80;99.90;;;;;;5054699;28;20233;-67
2022/04/11 01:07:43;;;;;;;3.28;1.40;;;29.60;99.90;;;;;;5073980;28;20182;-69
2022/04/11 01:10:11;;;;;;;5.03;1.60;;;29.50;99.90;;;;;;5074267;28;20203;-68
2022/04/11 01:12:40;;;;;;;5.63;1.70;;;29.40;99.90;;;;;;5072865;28;20191;-68
2022/04/11 01:15:11;;;;;;;2.13;1.30;;;29.60;99.90;;;;;;5073779;28;20236;-68
2022/04/11 01:17:41;;;;;;;3.10;1.35;;;30.40;99.90;;;;;;5073205;28;20188;-68
2022/04/11 01:20:16;;;;;;;3.72;1.27;;;30.50;99.90;;;;;;5072451;28;20220;-68
2022/04/11 01:22:44;;;;;;;2.45;1.27;;;30.30;99.90;;;;;;5073605;28;20524;-68
2022/04/11 01:25:12;;;;;;;3.75;1.40;;;29.90;99.90;;;;;;5072308;28;20629;-68
2022/04/11 01:27:40;;;;;;;5.00;1.95;;;29.70;99.90;;;;;;5072224;28;20289;-69
2022/04/11 01:30:10;;;;;;;6.28;1.50;;;29.60;99.90;;;;;;5073606;28;20243;-69
2022/04/11 01:32:41;;;;;;;2.22;1.60;;;30.00;99.90;;;;;;5073518;28;20203;-69
2022/04/11 01:35:29;;;;;;;4.05;1.75;;;29.90;99.90;;;;;;5073760;28;20179;-69
2022/04/11 01:37:56;;;;;;;3.47;1.40;;;29.90;99.90;;;;;;5072533;28;20665;-70
2022/04/11 01:40:24;;;;;;;4.03;2.00;;;30.00;99.90;;;;;;5072114;28;20681;-69
2022/04/11 01:42:51;;;;;;;2.42;1.40;;;29.80;99.90;;;;;;5073256;28;20544;-68
2022/04/11 01:45:20;;;;;;;2.08;1.50;;;30.00;99.90;;;;;;5073493;28;20180;-69
2022/04/11 01:47:47;;;;;;;2.05;1.30;;;29.90;99.90;;;;;;5072166;28;20184;-68
2022/04/11 01:50:14;;;;;;;1.58;1.33;;;30.10;99.90;;;;;;5073551;28;20551;-68
2022/04/11 01:52:43;;;;;;;3.72;1.40;;;29.90;99.90;;;;;;5073221;28;20168;-68
2022/04/11 01:55:10;;;;;;;3.55;1.10;;;29.90;99.90;;;;;;5073435;28;20187;-68
2022/04/11 01:57:37;;;;;;;4.20;1.33;;;30.90;99.90;;;;;;5073106;28;20649;-67
2022/04/11 02:00:05;;;;;;;3.45;1.05;;;30.40;99.90;;;;;;5073109;28;20191;-68
2022/04/11 02:02:34;;;;;;;2.55;1.00;;;30.60;99.90;;;;;;5073377;28;20160;-70
2022/04/11 02:05:01;;;;;;;3.50;1.00;;;30.70;99.90;;;;;;5072754;28;20222;-70
2022/04/11 02:07:28;;;;;;;2.78;1.08;;;30.30;99.90;;;;;;5071750;28;20234;-70
2022/04/11 02:09:56;;;;;;;2.03;0.82;;;31.20;99.90;;;;;;5072943;28;20254;-70
2022/04/11 02:12:23;;;;;;;2.17;0.93;;;31.80;99.90;;;;;;5072514;28;20504;-67
2022/04/11 02:14:51;;;;;;;2.13;0.55;;;31.90;99.90;;;;;;5071111;28;20228;-69
2022/04/11 02:17:18;;;;;;;2.58;0.73;;;30.90;99.90;;;;;;5072052;28;20210;-69
2022/04/11 02:19:46;;;;;;;1.40;0.63;;;31.20;99.90;;;;;;5069572;28;20237;-69
2022/04/11 02:22:13;;;;;;;1.85;0.60;;;30.90;99.90;;;;;;5070913;28;20203;-68
2022/04/11 02:24:41;;;;;;;1.13;0.50;;;31.00;99.90;;;;;;5051657;28;20192;-69
2022/04/11 02:27:09;;;;;;;1.05;0.57;;;31.40;99.90;;;;;;5072664;28;20183;-69
2022/04/11 02:29:37;;;;;;;4.78;0.90;;;31.80;99.90;;;;;;5072965;28;20685;-69
2022/04/11 02:32:04;;;;;;;1.33;0.70;;;31.60;99.90;;;;;;5069488;28;20187;-69
2022/04/11 02:34:32;;;;;;;3.75;0.60;;;31.00;99.90;;;;;;5053352;28;20184;-69
2022/04/11 02:36:59;;;;;;;1.83;0.38;;;31.60;99.90;;;;;;5057524;28;20172;-70
2022/04/11 02:39:29;;;;;;;0.82;0.50;;;31.80;99.90;;;;;;5072741;28;20195;-68
2022/04/11 02:41:57;;;;;;;1.00;0.50;;;31.80;99.90;;;;;;5071392;28;20172;-69
2022/04/11 02:44:24;;;;;;;0.52;0.30;;;31.10;99.90;;;;;;5061593;28;20176;-69
2022/04/11 02:46:51;;;;;;;2.78;0.40;;;31.40;99.90;;;;;;5072008;28;20207;-69
2022/04/11 02:49:19;;;;;;;1.40;0.52;;;32.30;99.90;;;;;;5071933;28;20669;-69
2022/04/11 02:51:46;;;;;;;0.88;0.57;;;31.80;99.90;;;;;;5073077;28;20183;-70
2022/04/11 02:54:14;;;;;;;0.40;0.30;;;32.40;99.90;;;;;;5059626;28;20185;-68
2022/04/11 02:56:45;;;;;;;1.55;0.40;;;32.40;99.90;;;;;;5052518;28;20183;-69
2022/04/11 02:59:12;;;;;;;3.35;0.47;;;32.40;99.90;;;;;;5057279;28;20190;-69
2022/04/11 03:01:40;;;;;;;1.90;0.40;;;31.70;99.90;;;;;;5072160;28;20190;-70
2022/04/11 03:04:07;;;;;;;1.83;0.60;;;30.80;99.90;;;;;;5072245;28;20186;-70
2022/04/11 03:06:34;;;;;;;1.83;0.73;;;31.00;99.90;;;;;;5071326;28;20674;-69
2022/04/11 03:09:02;;;;;;;0.60;0.50;;;30.80;99.90;;;;;;5069587;28;20224;-68
2022/04/11 03:11:29;;;;;;;2.92;0.57;;;30.80;99.90;;;;;;5072444;28;20188;-70
2022/04/11 03:13:59;;;;;;;0.95;0.60;;;30.60;99.90;;;;;;5072715;28;20260;-69
2022/04/11 03:16:27;;;;;;;1.70;0.50;;;30.60;99.90;;;;;;5071002;28;21002;-69
2022/04/11 03:18:54;;;;;;;2.15;0.52;;;30.40;99.90;;;;;;5056753;28;20957;-69
2022/04/11 03:21:21;;;;;;;2.78;0.60;;;31.30;99.90;;;;;;5064308;28;20238;-68
2022/04/11 03:23:49;;;;;;;4.57;0.52;;;31.50;99.90;;;;;;5071178;28;20168;-69
2022/04/11 03:26:18;;;;;;;7.80;1.30;;;31.40;99.90;;;;;;5071718;28;20188;-69
2022/04/11 03:28:48;;;;;;;0.60;0.40;;;31.50;99.90;;;;;;5070400;28;20251;-68
2022/04/11 03:31:17;;;;;;;2.03;0.60;;;31.50;99.90;;;;;;5069601;28;20176;-68
2022/04/11 03:33:49;;;;;;;1.05;0.50;;;31.20;99.90;;;;;;5074059;28;20183;-68
2022/04/11 03:36:19;;;;;;;1.05;0.50;;;31.30;99.90;;;;;;5077070;28;20238;-70
2022/04/11 03:38:53;;;;;;;1.08;0.60;;;31.60;99.90;;;;;;5075899;28;20182;-70
2022/04/11 03:41:35;;;;;;;1.70;0.50;;;31.80;99.90;;;;;;5076671;28;20189;-69
2022/04/11 03:44:03;;;;;;;1.17;0.50;;;31.50;99.90;;;;;;5076366;28;20183;-70
2022/04/11 03:46:30;;;;;;;0.90;0.52;;;30.70;99.90;;;;;;5075988;28;20634;-69
2022/04/11 03:48:58;;;;;;;1.50;0.50;;;31.10;99.90;;;;;;5074524;28;20631;-69
2022/04/11 03:51:26;;;;;;;1.45;0.40;;;31.10;99.90;;;;;;5075924;28;20238;-69
2022/04/11 03:53:53;;;;;;;8.32;0.63;;;30.70;99.90;;;;;;5076258;28;20172;-69
2022/04/11 03:56:32;;;;;;;1.90;0.50;;;31.20;99.90;;;;;;5060624;28;20342;-70
2022/04/11 03:59:02;;;;;;;0.85;0.47;;;31.00;99.90;;;;;;5071430;28;20200;-69
2022/04/11 04:01:29;;;;;;;2.05;0.70;;;30.90;99.90;;;;;;5055934;28;20238;-69
2022/04/11 04:03:56;;;;;;;1.35;0.47;;;30.90;99.90;;;;;;5056007;28;20227;-69
2022/04/11 04:06:24;;;;;;;1.80;0.50;;;31.80;99.90;;;;;;5055272;28;20216;-70
2022/04/11 04:08:51;;;;;;;2.33;0.80;;;31.70;99.90;;;;;;5064683;28;20207;-69
2022/04/11 04:11:18;;;;;;;3.38;0.85;;;31.60;99.90;;;;;;5071043;28;20227;-70
2022/04/11 04:13:46;;;;;;;2.03;0.52;;;31.50;99.90;;;;;;5075017;28;20175;-70
2022/04/11 04:16:17;;;;;;;3.55;0.82;;;31.50;99.90;;;;;;5074428;28;20224;-70
2022/04/11 04:18:50;;;;;;;1.83;0.60;;;31.40;99.90;;;;;;5077595;28;20219;-71
2022/04/11 04:21:21;;;;;;;1.95;0.55;;;31.80;99.90;;;;;;5074901;28;20179;-71
2022/04/11 04:23:48;;;;;;;3.00;0.80;;;31.50;99.90;;;;;;5073284;28;20909;-69
2022/04/11 04:26:15;;;;;;;1.08;0.60;;;31.10;99.90;;;;;;5074744;28;20230;-70
2022/04/11 04:28:42;;;;;;;5.05;0.70;;;31.00;99.90;;;;;;5074857;28;20747;-70
2022/04/11 04:31:10;;;;;;;3.13;0.82;;;31.00;99.90;;;;;;5073156;28;20188;-70
2022/04/11 04:33:37;;;;;;;1.70;0.60;;;31.10;99.90;;;;;;5074663;28;20172;-72
2022/04/11 04:36:05;;;;;;;1.48;0.50;;;30.90;99.90;;;;;;5074646;28;20230;-69
2022/04/11 04:38:32;;;;;;;1.55;0.50;;;30.90;99.90;;;;;;5074562;28;20676;-70
2022/04/11 04:40:59;;;;;;;1.42;0.57;;;30.70;99.90;;;;;;5073396;28;20630;-69
2022/04/11 04:43:27;;;;;;;2.13;0.70;;;30.40;99.90;;;;;;5074657;28;20176;-70
2022/04/11 04:45:54;;;;;;;0.70;0.50;;;30.50;99.90;;;;;;5072785;28;20394;-69
2022/04/11 04:48:21;;;;;;;0.40;0.40;;;30.40;99.90;;;;;;5071629;28;20656;-71
2022/04/11 04:50:49;;;;;;;4.13;0.85;;;31.00;99.90;;;;;;5074506;28;20560;-70
2022/04/11 04:53:16;;;;;;;3.13;1.00;;;30.80;99.90;;;;;;5073622;28;20210;-71
2022/04/11 04:55:43;;;;;;;1.30;0.98;;;30.50;99.90;;;;;;5073824;28;20545;-71
2022/04/11 04:58:10;;;;;;;2.85;0.90;;;30.30;99.90;;;;;;5074256;28;20191;-70
2022/04/11 05:00:38;;;;;;;3.57;0.80;;;30.00;99.90;;;;;;5073888;28;20176;-69
2022/04/11 05:03:06;;;;;;;1.60;0.67;;;29.60;99.90;;;;;;5073116;28;20184;-69
2022/04/11 05:05:35;;;;;;;4.97;1.30;;;29.00;99.90;;;;;;5073356;28;20168;-69
2022/04/11 05:08:02;;;;;;;3.43;0.90;;;28.50;99.90;;;;;;5073338;28;20183;-69
2022/04/11 05:10:29;;;;;;;4.23;1.53;;;28.30;99.90;;;;;;5073461;28;20673;-69
2022/04/11 05:12:57;;;;;;;3.97;1.07;;;28.00;99.90;;;;;;5073608;28;20690;-69
2022/04/11 05:15:25;;;;;;;3.77;1.07;;;27.80;99.90;;;;;;5073245;28;20224;-69
2022/04/11 05:17:53;;;;;;;4.40;1.47;;;27.50;99.90;;;;;;5073137;28;20194;-69
2022/04/11 05:20:21;;;;;;;5.03;1.10;;;27.30;99.90;;;;;;5072969;28;20176;-68
2022/04/11 05:22:48;;;;;;;4.27;1.57;;;27.00;99.90;;;;;;5072660;28;20186;-68
2022/04/11 05:25:15;;;;;;;5.53;1.27;;;27.00;99.90;;;;;;5073475;28;20424;-69
2022/04/11 05:27:43;;;;;;;1.97;0.90;;;26.80;99.90;;;;;;5073273;28;20186;-69
2022/04/11 05:30:10;;;;;;;1.73;0.90;;;26.70;99.90;;;;;;5073360;28;20688;-69
2022/04/11 05:32:37;;;;;;;2.43;1.00;;;26.70;99.90;;;;;;5072799;28;20180;-69
2022/04/11 05:35:05;;;;;;;4.53;1.00;;;26.60;99.90;;;;;;5073389;28;20581;-69
2022/04/11 05:37:33;;;;;;;2.30;1.10;;;26.70;99.90;;;;;;5073287;28;20255;-69
2022/04/11 05:40:00;;;;;;;4.90;1.60;;;26.60;99.90;;;;;;5073270;28;20285;-69
2022/04/11 05:42:27;;;;;;;5.37;1.30;;;26.40;99.90;;;;;;5072941;28;20172;-69
2022/04/11 05:44:55;;;;;;;3.73;1.27;;;26.50;99.90;;;;;;5072749;28;20230;-69
2022/04/11 05:48:11;;;;;;;3.60;1.17;;;26.70;99.90;;;;;;5076597;28;20175;-69
2022/04/11 05:50:41;;;;;;;2.53;1.20;;;26.70;99.90;;;;;;5068862;28;20216;-68
2022/04/11 05:53:08;;;;;;;2.50;1.03;;;26.80;99.90;;;;;;5072961;28;20263;-69
2022/04/11 05:55:36;;;;;;;1.80;0.93;;;26.80;99.90;;;;;;5072332;28;20824;-69
2022/04/11 05:58:03;;;;;;;7.50;1.13;;;26.80;99.90;;;;;;5072334;28;20585;-69
2022/04/11 06:00:32;;;;;;;1.93;1.00;;;27.10;99.90;;;;;;5063089;28;20561;-69
2022/04/11 06:03:00;;;;;;;2.20;0.90;;;27.00;99.90;;;;;;5052655;28;20196;-70
2022/04/11 06:05:27;;;;;;;3.73;1.23;;;27.20;99.90;;;;;;5065052;28;20192;-70
2022/04/11 06:07:54;;;;;;;1.10;0.70;;;27.00;99.90;;;;;;5053219;28;20199;-69
2022/04/11 06:10:22;;;;;;;1.93;0.97;;;26.70;99.90;;;;;;5066202;28;20228;-70
2022/04/11 06:12:50;;;;;;;5.20;1.20;;;26.40;99.90;;;;;;5068724;28;20211;-69
2022/04/11 06:15:18;;;;;;;3.43;1.03;;;26.40;99.90;;;;;;5053608;28;20628;-69
2022/04/11 06:17:45;;;;;;;1.80;0.80;;;26.20;99.90;;;;;;5051345;28;20650;-69
2022/04/11 06:20:13;;;;;;;2.73;0.90;;;26.30;99.90;;;;;;5057185;28;20184;-69
2022/04/11 06:22:41;;;;;;;2.77;0.80;;;26.10;99.90;;;;;;5072401;28;20176;-69
2022/04/11 06:25:09;;;;;;;3.33;0.90;;;26.10;99.90;;;;;;5071313;28;20180;-69
2022/04/11 06:27:39;;;;;;;2.67;1.23;;;26.00;99.90;;;;;;5052622;28;20188;-69
2022/04/11 06:30:07;;;;;;;4.27;1.17;;;25.90;99.90;;;;;;5055886;28;20627;-70
2022/04/11 06:32:35;;;;;;;3.83;1.30;;;25.60;99.90;;;;;;5072412;28;20203;-69
2022/04/11 06:35:02;;;;;;;6.73;1.80;;;25.60;99.90;;;;;;5072452;28;20230;-70
2022/04/11 06:37:30;;;;;;;6.03;1.67;;;25.30;99.90;;;;;;5072886;28;20211;-69
2022/04/11 06:39:58;;;;;;;6.63;1.63;;;25.20;99.90;;;;;;5065762;28;20187;-69
2022/04/11 06:42:25;;;;;;;13.73;2.07;;;25.10;99.90;;;;;;5056757;28;20595;-69
2022/04/11 06:44:53;;;;;;;4.97;1.83;;;25.00;99.90;;;;;;5071299;28;20215;-70
2022/04/11 06:47:23;;;;;;;5.57;1.60;;;25.00;99.90;;;;;;5071285;28;20637;-68
2022/04/11 06:49:50;;;;;;;6.40;2.03;;;25.10;99.90;;;;;;5069156;28;20306;-69
2022/04/11 06:52:19;;;;;;;7.73;2.27;;;25.00;99.90;;;;;;5072396;28;20180;-69
2022/04/11 06:54:46;;;;;;;6.73;1.90;;;24.40;99.90;;;;;;5072127;28;20211;-69
2022/04/11 06:57:14;;;;;;;4.80;1.63;;;24.50;99.90;;;;;;5072484;28;20221;-69
2022/04/11 06:59:41;;;;;;;7.83;1.80;;;24.20;99.90;;;;;;5071490;28;20188;-69
2022/04/11 07:02:08;;;;;;;10.20;1.87;;;24.20;99.90;;;;;;5072364;28;20179;-69
2022/04/11 07:04:37;;;;;;;10.90;2.00;;;24.00;99.90;;;;;;5072695;28;20175;-69
2022/04/11 07:07:04;;;;;;;5.43;2.23;;;24.00;99.90;;;;;;5072390;28;20220;-69
2022/04/11 07:09:32;;;;;;;7.37;1.97;;;24.10;99.90;;;;;;5052396;28;20216;-70
2022/04/11 07:11:59;;;;;;;9.17;2.50;;;23.90;99.90;;;;;;5072605;28;20186;-69
2022/04/11 07:14:29;;;;;;;10.37;3.03;;;23.90;99.90;;;;;;5069615;28;20190;-69
2022/04/11 07:16:56;;;;;;;11.43;2.70;;;23.70;99.90;;;;;;5071639;28;20183;-69
2022/04/11 07:19:25;;;;;;;10.50;2.70;;;23.60;99.90;;;;;;5068076;28;20232;-69
2022/04/11 07:21:52;;;;;;;13.87;3.53;;;23.60;99.90;;;;;;5069986;28;20586;-69
2022/04/11 07:24:19;;;;;;;12.37;3.10;;;23.50;99.90;;;;;;5071143;28;20210;-67
2022/04/11 07:26:47;;;;;;;14.37;3.63;;;23.30;99.90;;;;;;5071402;28;20199;-69
2022/04/11 07:29:14;;;;;;;15.60;4.27;;;23.30;99.90;;;;;;5071099;28;20229;-69
2022/04/11 07:31:42;;;;;;;14.47;4.37;;;23.30;99.90;;;;;;5071650;28;20577;-69
2022/04/11 07:34:09;;;;;;;14.33;4.10;;;23.10;99.90;;;;;;5072368;28;20184;-69
2022/04/11 07:36:36;;;;;;;16.67;4.47;;;23.00;99.90;;;;;;5070678;28;20532;-70
2022/04/11 07:39:04;;;;;;;21.17;5.30;;;23.00;99.90;;;;;;5069945;28;20181;-68
2022/04/11 07:41:31;;;;;;;24.50;6.17;;;22.90;99.90;;;;;;5069257;28;20532;-68
2022/04/11 07:43:59;;;;;;;20.97;5.67;;;22.80;99.90;;;;;;5072523;28;20164;-69
2022/04/11 07:46:27;;;;;;;29.50;6.93;;;22.80;99.90;;;;;;5070446;28;20301;-68
2022/04/11 07:48:57;;;;;;;22.23;6.60;;;22.80;99.90;;;;;;5070334;28;20265;-69
2022/04/11 07:51:25;;;;;;;22.13;7.00;;;22.80;99.90;;;;;;5071546;28;20255;-69
2022/04/11 07:53:52;;;;;;;27.87;7.20;;;22.70;99.90;;;;;;5070186;28;20190;-68
2022/04/11 07:56:19;;;;;;;30.47;7.67;;;22.70;99.90;;;;;;5064171;28;20210;-69
2022/04/11 07:58:47;;;;;;;24.93;7.33;;;22.70;99.90;;;;;;5070852;28;20176;-68
2022/04/11 08:01:16;;;;;;;21.90;8.27;;;22.70;99.90;;;;;;5051708;28;20245;-68
2022/04/11 08:03:44;;;;;;;21.10;7.47;;;22.60;99.90;;;;;;5053445;28;20191;-68
2022/04/11 08:06:12;;;;;;;26.27;7.93;;;22.60;99.90;;;;;;5071299;28;20658;-68
2022/04/11 08:08:44;;;;;;;19.40;7.13;;;22.60;99.90;;;;;;5060930;28;20211;-68
2022/04/11 08:11:16;;;;;;;21.53;8.10;;;22.50;99.90;;;;;;5052637;28;20219;-68
2022/04/11 08:13:43;;;;;;;27.43;8.80;;;22.50;99.90;;;;;;5052515;28;20193;-68
2022/04/11 08:16:11;;;;;;;27.50;7.80;;;22.50;99.90;;;;;;5054761;28;20682;-68
2022/04/11 08:18:39;;;;;;;28.47;7.90;;;22.60;99.90;;;;;;5052278;28;20167;-68
2022/04/11 08:21:06;;;;;;;28.93;7.87;;;22.50;99.90;;;;;;5073175;28;20199;-68
2022/04/11 08:23:33;;;;;;;30.97;8.10;;;22.60;99.90;;;;;;5074968;28;20642;-68
2022/04/11 08:26:01;;;;;;;16.30;6.67;;;22.50;99.90;;;;;;5074902;28;20175;-68
2022/04/11 08:28:28;;;;;;;22.30;7.77;;;22.50;99.90;;;;;;5063021;28;20570;-69
2022/04/11 08:30:55;;;;;;;22.30;7.30;;;22.40;99.90;;;;;;5054914;28;20188;-69
2022/04/11 08:33:23;;;;;;;24.50;6.73;;;22.50;99.90;;;;;;5059335;28;20261;-69
2022/04/11 08:35:50;;;;;;;25.10;6.77;;;22.50;99.90;;;;;;5061577;28;20636;-69
2022/04/11 08:38:17;;;;;;;19.30;6.33;;;22.40;99.90;;;;;;5061076;28;20270;-69
2022/04/11 08:40:46;;;;;;;23.27;6.67;;;22.50;99.90;;;;;;5068380;28;20194;-69
2022/04/11 08:43:14;;;;;;;20.83;7.40;;;22.40;99.90;;;;;;5068373;28;20176;-68
2022/04/11 08:45:41;;;;;;;23.67;6.87;;;22.30;99.90;;;;;;5067521;28;20195;-69
2022/04/11 08:48:11;;;;;;;24.87;7.40;;;22.40;99.90;;;;;;5074301;28;20183;-68
2022/04/11 08:50:40;;;;;;;20.53;6.40;;;22.40;99.90;;;;;;5069272;28;20208;-68
2022/04/11 08:53:07;;;;;;;24.47;7.00;;;22.30;99.90;;;;;;5055310;28;20188;-69
2022/04/11 08:55:34;;;;;;;22.20;6.40;;;22.30;99.90;;;;;;5054444;28;20638;-69
2022/04/11 08:58:02;;;;;;;21.90;6.53;;;22.30;99.90;;;;;;5054131;28;20176;-69
2022/04/11 09:00:31;;;;;;;25.70;7.13;;;22.20;99.90;;;;;;5068761;28;20183;-69
2022/04/11 09:02:58;;;;;;;22.70;6.20;;;22.20;99.90;;;;;;5073748;28;20198;-70
2022/04/11 09:05:27;;;;;;;25.13;6.20;;;22.20;99.90;;;;;;5069454;28;20204;-69
2022/04/11 09:07:59;;;;;;;23.27;6.73;;;22.20;99.90;;;;;;5056358;28;20184;-69
2022/04/11 09:10:29;;;;;;;20.60;6.10;;;22.10;99.90;;;;;;5063106;28;20580;-69
2022/04/11 09:12:58;;;;;;;24.43;6.77;;;22.10;99.90;;;;;;5072565;28;20187;-69
2022/04/11 09:15:27;;;;;;;26.83;6.93;;;22.10;99.90;;;;;;5073163;28;20246;-69
2022/04/11 09:17:57;;;;;;;26.50;7.37;;;22.10;99.90;;;;;;5053789;28;20224;-68
2022/04/11 09:20:29;;;;;;;19.33;6.60;;;22.10;99.90;;;;;;5067445;28;20236;-68
2022/04/11 09:22:57;;;;;;;23.60;6.57;;;22.10;99.90;;;;;;5070107;28;20180;-67
2022/04/11 09:25:29;;;;;;;31.40;5.77;;;22.10;99.90;;;;;;5053683;28;20229;-67
2022/04/11 09:28:10;;;;;;;27.47;6.13;;;22.00;99.90;;;;;;5054477;28;20265;-67
2022/04/11 09:30:39;;;;;;;24.97;6.37;;;22.00;99.90;;;;;;5052033;28;20263;-68
2022/04/11 09:33:10;;;;;;;22.27;6.57;;;21.90;99.90;;;;;;5053503;28;20180;-69
2022/04/11 09:35:40;;;;;;;25.10;5.90;;;21.90;99.90;;;;;;5035447;28;20187;-69
2022/04/11 09:38:15;;;;;;;25.17;6.07;;;21.80;99.90;;;;;;5052065;28;20707;-67
2022/04/11 09:40:56;;;;;;;31.10;6.73;;;21.80;99.90;;;;;;5053504;28;20180;-68
2022/04/11 09:43:33;;;;;;;21.40;5.13;;;21.70;99.90;;;;;;5053241;28;20208;-68
2022/04/11 09:46:03;;;;;;;22.40;5.53;;;21.70;99.90;;;;;;5059464;28;20180;-67
2022/04/11 09:48:35;;;;;;;24.43;5.27;;;21.70;99.90;;;;;;5067973;28;20188;-67
2022/04/11 09:51:10;;;;;;;23.43;5.57;;;21.60;99.90;;;;;;5061363;28;20272;-69
2022/04/11 09:53:38;;;;;;;18.93;5.33;;;21.70;99.90;;;;;;5051586;28;20184;-68
2022/04/11 09:56:10;;;;;;;17.73;5.47;;;21.60;99.90;;;;;;5053797;28;20175;-68
2022/04/11 09:58:42;;;;;;;26.27;5.87;;;21.60;99.90;;;;;;5072215;28;20237;-68
2022/04/11 10:01:15;;;;;;;22.17;6.17;;;21.60;99.90;;;;;;5071384;28;20637;-67
2022/04/11 10:03:42;;;;;;;24.43;5.57;;;21.50;99.90;;;;;;5073242;28;20188;-68
2022/04/11 10:06:12;;;;;;;21.97;5.27;;;21.50;99.90;;;;;;5073129;28;20180;-69
2022/04/11 10:08:40;;;;;;;19.93;4.90;;;21.50;99.90;;;;;;5061931;28;20176;-69
2022/04/11 10:11:09;;;;;;;25.03;5.73;;;21.50;99.90;;;;;;5096476;28;20192;-69
2022/04/11 10:13:38;;;;;;;23.87;5.97;;;21.50;99.90;;;;;;5062650;28;20206;-68
2022/04/11 10:16:07;;;;;;;22.90;5.93;;;21.50;99.90;;;;;;5066387;28;20227;-69
2022/04/11 10:18:34;;;;;;;20.47;5.40;;;21.40;99.90;;;;;;5056949;28;20229;-68
2022/04/11 10:21:07;;;;;;;23.40;5.20;;;21.40;99.90;;;;;;5065381;28;20215;-68
2022/04/11 10:24:07;;;;;;;19.90;5.43;;;21.40;99.90;;;;;;5066373;28;20183;-68
2022/04/11 10:26:52;;;;;;;19.50;4.57;;;21.30;99.90;;;;;;5071630;28;20348;-69
2022/04/11 10:29:33;;;;;;;23.10;5.70;;;21.40;99.90;;;;;;5046762;28;20632;-69
2022/04/11 10:32:11;;;;;;;21.90;5.13;;;21.30;99.90;;;;;;5055663;28;20233;-69
2022/04/11 10:34:55;;;;;;;21.90;5.57;;;21.40;99.90;;;;;;5052400;28;20187;-70
2022/04/11 10:37:49;;;;;;;29.40;5.93;;;21.40;99.90;;;;;;5053335;28;20218;-69
2022/04/11 10:40:19;;;;;;;21.77;4.63;;;21.40;99.90;;;;;;5064215;28;20782;-69
2022/04/11 10:43:04;;;;;;;24.47;5.50;;;21.40;99.90;;;;;;5071971;28;20987;-69
2022/04/11 10:45:35;;;;;;;23.60;6.30;;;21.30;99.90;;;;;;5066030;28;20188;-68
2022/04/11 10:48:07;;;;;;;25.50;5.57;;;21.20;99.90;;;;;;5067973;28;20653;-68
2022/04/11 10:50:43;;;;;;;26.97;5.67;;;21.20;99.90;;;;;;5060702;28;20212;-69
2022/04/11 10:53:25;;;;;;;23.80;6.43;;;21.20;99.90;;;;;;5054263;28;20552;-70
2022/04/11 10:55:55;;;;;;;55.13;13.80;;;21.20;99.90;;;;;;5053855;28;20544;-70
2022/04/11 10:58:39;;;;;;;23.13;5.27;;;21.20;99.90;;;;;;5053760;28;20247;-70
2022/04/11 11:01:11;;;;;;;22.17;5.10;;;21.30;99.90;;;;;;5068718;28;20188;-70
2022/04/11 11:03:41;;;;;;;20.03;5.30;;;21.20;99.90;;;;;;5074625;28;20264;-70
2022/04/11 11:06:23;;;;;;;20.73;5.10;;;21.30;99.90;;;;;;5073491;28;20633;-69
2022/04/11 11:08:50;;;;;;;24.53;6.30;;;21.20;99.90;;;;;;5069094;28;20203;-70
2022/04/11 11:11:23;;;;;;;25.80;5.90;;;21.20;99.90;;;;;;5072752;28;20251;-69
2022/04/11 11:14:01;;;;;;;23.37;5.30;;;21.20;99.90;;;;;;5073191;28;20184;-69
2022/04/11 11:16:36;;;;;;;21.33;5.70;;;21.20;99.90;;;;;;5072296;28;20324;-69
2022/04/11 11:19:03;;;;;;;23.53;5.77;;;21.10;99.90;;;;;;5069936;28;20183;-69
2022/04/11 11:21:37;;;;;;;18.17;4.70;;;21.10;99.90;;;;;;5073194;28;20803;-68
2022/04/11 11:24:04;;;;;;;25.90;5.43;;;21.10;99.90;;;;;;5073635;28;20172;-69
2022/04/11 11:26:54;;;;;;;18.17;4.47;;;21.10;99.90;;;;;;5073457;28;20179;-70
2022/04/11 11:29:43;;;;;;;25.97;5.57;;;21.10;99.90;;;;;;5063820;28;20231;-70
2022/04/11 11:32:14;;;;;;;23.97;5.73;;;21.10;99.90;;;;;;5054124;28;20167;-70
2022/04/11 11:34:51;;;;;;;23.67;5.63;;;21.10;99.90;;;;;;5053559;28;20230;-69
2022/04/11 11:37:18;;;;;;;28.90;5.40;;;21.10;99.90;;;;;;5062066;28;20180;-70
2022/04/11 11:39:45;;;;;;;18.13;5.40;;;21.00;99.90;;;;;;5059944;28;20646;-69
2022/04/11 11:42:18;;;;;;;24.47;6.23;;;21.00;99.90;;;;;;5069463;28;20234;-69
2022/04/11 11:44:50;;;;;;;27.63;6.17;;;21.00;99.90;;;;;;5073037;28;20192;-69
2022/04/11 11:47:27;;;;;;;21.27;5.93;;;21.00;99.90;;;;;;5073139;28;20168;-69
2022/04/11 11:50:12;;;;;;;29.07;6.23;;;21.00;99.90;;;;;;5058711;28;20219;-70
2022/04/11 11:52:40;;;;;;;27.97;5.63;;;21.00;99.90;;;;;;5052752;28;20165;-69
2022/04/11 11:55:08;;;;;;;25.97;4.93;;;21.00;99.90;;;;;;5055038;28;20177;-69
2022/04/11 11:57:36;;;;;;;25.07;5.03;;;21.00;99.90;;;;;;5056437;28;20230;-70
2022/04/11 12:00:09;;;;;;;21.37;4.60;;;21.00;99.90;;;;;;5068640;28;20182;-69
2022/04/11 12:05:36;;;;;;;20.03;5.33;;;21.00;99.90;;;;;;5056954;28;20724;-69
2022/04/11 12:08:04;;;;;;;21.53;5.80;;;21.00;99.90;;;;;;5057638;28;20246;-69
2022/04/11 12:10:32;;;;;;;25.30;6.10;;;21.00;99.90;;;;;;5074975;28;20207;-69
2022/04/11 12:12:59;;;;;;;23.07;5.70;;;21.00;99.90;;;;;;5076229;28;20199;-69
2022/04/11 12:15:33;;;;;;;22.73;5.87;;;21.00;99.90;;;;;;5074349;28;20290;-69
2022/04/11 12:18:05;;;;;;;22.67;5.43;;;20.90;99.90;;;;;;5076802;28;20207;-69
2022/04/11 12:20:38;;;;;;;25.23;5.17;;;20.90;99.90;;;;;;5059653;28;20687;-69
2022/04/11 12:23:12;;;;;;;33.57;6.20;;;21.00;99.90;;;;;;5075305;28;20533;-69
2022/04/11 12:25:54;;;;;;;24.77;5.53;;;20.90;99.90;;;;;;5075403;28;20186;-69
2022/04/11 12:28:27;;;;;;;22.40;5.23;;;20.80;99.90;;;;;;5076130;28;20507;-69
2022/04/11 12:31:03;;;;;;;26.80;5.47;;;20.70;99.90;;;;;;5075440;28;20215;-69
2022/04/11 12:33:36;;;;;;;29.93;6.50;;;20.60;99.90;;;;;;5059128;28;20184;-69
2022/04/11 12:36:08;;;;;;;25.80;5.40;;;20.60;99.90;;;;;;5055887;28;20195;-69
2022/04/11 12:38:47;;;;;;;27.33;5.50;;;20.60;99.90;;;;;;5056284;28;20263;-68
2022/04/11 12:41:31;;;;;;;30.77;5.30;;;20.70;99.90;;;;;;5057024;28;20253;-68
2022/04/11 12:44:07;;;;;;;19.03;5.27;;;20.70;99.90;;;;;;5055645;28;20188;-68
2022/04/11 12:46:58;;;;;;;20.33;4.87;;;20.70;99.90;;;;;;5062128;28;20183;-69
2022/04/11 12:49:43;;;;;;;26.77;5.50;;;20.70;99.90;;;;;;5070971;28;20358;-69
2022/04/11 12:52:10;;;;;;;20.30;5.60;;;20.70;99.90;;;;;;5055796;28;20227;-69
2022/04/11 12:54:43;;;;;;;23.87;4.77;;;20.70;99.90;;;;;;5062692;28;20194;-69
2022/04/11 12:57:13;;;;;;;22.40;5.37;;;20.60;99.90;;;;;;5075616;28;20226;-69
2022/04/11 12:59:42;;;;;;;19.93;5.27;;;20.70;99.90;;;;;;5071931;28;20181;-69